Etusivu
METAR-TAF:

METAR-TAF

Lentoasemat :

Kramfors, Ruotsi

Leveyspiiri: 63-03N, Pituuspiiri: 017-46E, korkeus merenpinnasta: 10 m

Tämänhetkinen sää

Tämä raportti tehtiin 21 minuuttia sitten, kello 23.50 UTC
Tuuli 4 kn pohjoisen/luoteesta
Lämpötila 6°C
Kosteus 87%
Ilmanpaine 1013 hPa
Näkyvyys 10 km tai enemmän

METAR: ESNK 282350Z AUTO 33004KT 9999 NCD 06/04 Q1013

Aika: 02:11 (00:11 UTC)

Sääennuste

Tämä raportti tehtiin 6 tuntia ja 41 minuuttia sitten, kello 17.30 UTC
Ennuste voimassa 28. päivästä klo 18 UTC - 28. päivään klo 20 UTC
Tuuli 4 kn lännestä/luoteesta
Näkyvyys 10 km tai enemmän
ei pilviä alle 1500 m:ssä eikä cumulonimbus-pilviä

TAF: ESNK 281730Z 2818/2820 30004KT CAVOK

Säähavainnot ja -ennusteet yli 4000 lentoasemalta (METAR- ja TAF-raportit).

Käytössä olevat sääasemat on merkitty karttaan keltaisilla ja punaisilla pisteillä.

Aseta hiiri pisteen päälle nähdäksesi sääaseman nimen.

Klikkaa sitten nähdäksesi säähavainnot ja -ennusteet.

Kartan vaihtaminen: klikkaa mustalla rastilla varustettuja vihreitä pisteitä, niin voit zoomata sisään; viivalla varustettua vihreää pistettä, niin voit zoomata ulos tai vihreitä nuolia, niin pääset viereisille kartoille.


METAR-TAF: